sensor_id;sensor_type;location;lat;lon;timestamp;P1;durP1;ratioP1;P2;durP2;ratioP2
70535;SDS011;58089;48.752;11.338;2022-11-20T05:02:30;10.82;;;5.43;;
70535;SDS011;58089;48.752;11.338;2022-11-20T05:04:56;10.52;;;5.35;;
70535;SDS011;58089;48.752;11.338;2022-11-20T05:07:21;12.17;;;5.57;;
70535;SDS011;58089;48.752;11.338;2022-11-20T05:09:47;9.67;;;4.53;;
70535;SDS011;58089;48.752;11.338;2022-11-20T05:12:12;11.90;;;5.80;;
70535;SDS011;58089;48.752;11.338;2022-11-20T05:14:37;10.47;;;5.27;;
70535;SDS011;58089;48.752;11.338;2022-11-20T05:17:03;10.50;;;4.90;;
70535;SDS011;58089;48.752;11.338;2022-11-20T05:19:28;10.60;;;5.43;;
70535;SDS011;58089;48.752;11.338;2022-11-20T05:21:53;10.33;;;4.83;;
70535;SDS011;58089;48.752;11.338;2022-11-20T05:24:19;9.43;;;4.50;;
70535;SDS011;58089;48.752;11.338;2022-11-20T05:26:44;8.90;;;4.23;;
70535;SDS011;58089;48.752;11.338;2022-11-20T05:29:10;9.40;;;4.20;;
70535;SDS011;58089;48.752;11.338;2022-11-20T05:31:36;8.10;;;4.00;;
70535;SDS011;58089;48.752;11.338;2022-11-20T05:34:03;7.47;;;4.35;;
70535;SDS011;58089;48.752;11.338;2022-11-20T05:36:29;8.97;;;3.43;;
70535;SDS011;58089;48.752;11.338;2022-11-20T05:38:54;8.67;;;4.63;;
70535;SDS011;58089;48.752;11.338;2022-11-20T05:41:20;8.60;;;4.17;;
70535;SDS011;58089;48.752;11.338;2022-11-20T05:43:46;7.05;;;3.72;;
70535;SDS011;58089;48.752;11.338;2022-11-20T05:46:12;8.00;;;3.60;;
70535;SDS011;58089;48.752;11.338;2022-11-20T05:48:39;9.73;;;4.30;;
70535;SDS011;58089;48.752;11.338;2022-11-20T05:51:06;8.02;;;4.55;;
70535;SDS011;58089;48.752;11.338;2022-11-20T05:53:33;8.98;;;3.97;;
70535;SDS011;58089;48.752;11.338;2022-11-20T05:56:03;8.00;;;3.90;;
70535;SDS011;58089;48.752;11.338;2022-11-20T05:58:30;7.97;;;3.40;;
70535;SDS011;58089;48.752;11.338;2022-11-20T06:03:44;7.20;;;3.42;;
70535;SDS011;58089;48.752;11.338;2022-11-20T06:06:13;8.25;;;3.70;;
70535;SDS011;58089;48.752;11.338;2022-11-20T06:08:38;8.60;;;3.78;;
70535;SDS011;58089;48.752;11.338;2022-11-20T06:11:08;8.60;;;3.70;;
70535;SDS011;58089;48.752;11.338;2022-11-20T06:13:34;7.17;;;3.53;;
70535;SDS011;58089;48.752;11.338;2022-11-20T06:16:00;7.22;;;3.47;;
70535;SDS011;58089;48.752;11.338;2022-11-20T06:18:26;8.18;;;3.90;;
70535;SDS011;58089;48.752;11.338;2022-11-20T06:21:01;8.25;;;3.80;;
70535;SDS011;58089;48.752;11.338;2022-11-20T06:23:28;7.60;;;3.60;;
70535;SDS011;58089;48.752;11.338;2022-11-20T06:25:54;8.38;;;3.40;;
70535;SDS011;58089;48.752;11.338;2022-11-20T15:35:27;4.53;;;1.70;;
70535;SDS011;58089;48.752;11.338;2022-11-20T15:37:52;5.20;;;1.37;;
70535;SDS011;58089;48.752;11.338;2022-11-20T15:40:17;3.87;;;1.10;;
70535;SDS011;58089;48.752;11.338;2022-11-20T15:42:42;5.40;;;1.27;;
70535;SDS011;58089;48.752;11.338;2022-11-20T15:45:27;3.60;;;1.00;;
70535;SDS011;58089;48.752;11.338;2022-11-20T15:47:54;4.30;;;1.10;;
70535;SDS011;58089;48.752;11.338;2022-11-20T15:50:20;4.17;;;1.13;;
70535;SDS011;58089;48.752;11.338;2022-11-20T15:52:46;3.67;;;1.15;;
70535;SDS011;58089;48.752;11.338;2022-11-20T15:55:11;4.33;;;1.03;;
70535;SDS011;58089;48.752;11.338;2022-11-20T15:57:36;4.63;;;1.13;;
70535;SDS011;58089;48.752;11.338;2022-11-20T16:00:02;4.57;;;1.13;;
70535;SDS011;58089;48.752;11.338;2022-11-20T16:02:28;3.70;;;1.20;;
70535;SDS011;58089;48.752;11.338;2022-11-20T16:04:53;4.60;;;1.93;;
70535;SDS011;58089;48.752;11.338;2022-11-20T16:07:18;5.33;;;1.30;;
70535;SDS011;58089;48.752;11.338;2022-11-20T16:09:43;4.70;;;1.40;;
70535;SDS011;58089;48.752;11.338;2022-11-20T16:12:09;4.57;;;1.43;;
70535;SDS011;58089;48.752;11.338;2022-11-20T16:14:54;4.87;;;1.80;;
70535;SDS011;58089;48.752;11.338;2022-11-20T16:17:38;4.20;;;1.50;;
70535;SDS011;58089;48.752;11.338;2022-11-20T16:20:10;4.82;;;1.50;;
70535;SDS011;58089;48.752;11.338;2022-11-20T16:22:36;4.65;;;1.10;;
70535;SDS011;58089;48.752;11.338;2022-11-20T16:25:01;5.00;;;1.43;;
70535;SDS011;58089;48.752;11.338;2022-11-20T16:27:27;4.07;;;1.00;;
70535;SDS011;58089;48.752;11.338;2022-11-20T16:29:52;4.03;;;1.20;;
70535;SDS011;58089;48.752;11.338;2022-11-20T16:32:17;4.10;;;1.00;;
70535;SDS011;58089;48.752;11.338;2022-11-20T16:34:43;4.73;;;1.23;;
70535;SDS011;58089;48.752;11.338;2022-11-20T16:37:08;3.50;;;0.90;;
70535;SDS011;58089;48.752;11.338;2022-11-20T16:39:33;3.83;;;1.10;;
70535;SDS011;58089;48.752;11.338;2022-11-20T16:42:00;5.30;;;1.10;;
70535;SDS011;58089;48.752;11.338;2022-11-20T16:44:28;4.10;;;1.10;;
70535;SDS011;58089;48.752;11.338;2022-11-20T16:46:53;4.67;;;1.20;;
70535;SDS011;58089;48.752;11.338;2022-11-20T16:49:19;4.73;;;1.53;;
70535;SDS011;58089;48.752;11.338;2022-11-20T16:51:44;4.23;;;1.20;;
70535;SDS011;58089;48.752;11.338;2022-11-20T16:54:09;3.93;;;1.30;;
70535;SDS011;58089;48.752;11.338;2022-11-20T16:56:35;4.22;;;1.20;;
70535;SDS011;58089;48.752;11.338;2022-11-20T16:59:01;4.93;;;1.63;;
70535;SDS011;58089;48.752;11.338;2022-11-20T17:01:27;5.57;;;1.40;;
70535;SDS011;58089;48.752;11.338;2022-11-20T17:03:54;6.57;;;2.70;;
70535;SDS011;58089;48.752;11.338;2022-11-20T17:06:20;7.40;;;3.40;;
70535;SDS011;58089;48.752;11.338;2022-11-20T17:08:47;8.40;;;4.90;;
70535;SDS011;58089;48.752;11.338;2022-11-20T17:11:16;6.93;;;3.38;;
70535;SDS011;58089;48.752;11.338;2022-11-20T17:13:43;4.82;;;1.85;;
70535;SDS011;58089;48.752;11.338;2022-11-20T17:16:09;4.05;;;1.20;;
70535;SDS011;58089;48.752;11.338;2022-11-20T17:18:36;4.77;;;1.53;;
70535;SDS011;58089;48.752;11.338;2022-11-20T17:21:01;5.50;;;1.57;;
70535;SDS011;58089;48.752;11.338;2022-11-20T17:23:36;4.38;;;1.10;;
70535;SDS011;58089;48.752;11.338;2022-11-20T17:26:03;5.95;;;1.40;;
70535;SDS011;58089;48.752;11.338;2022-11-20T17:28:30;4.38;;;1.67;;
70535;SDS011;58089;48.752;11.338;2022-11-20T17:31:03;4.70;;;1.40;;
70535;SDS011;58089;48.752;11.338;2022-11-20T17:33:30;5.32;;;1.70;;
70535;SDS011;58089;48.752;11.338;2022-11-20T17:35:55;4.37;;;1.50;;
70535;SDS011;58089;48.752;11.338;2022-11-20T17:38:21;6.38;;;1.60;;
70535;SDS011;58089;48.752;11.338;2022-11-20T17:40:46;4.57;;;1.77;;
70535;SDS011;58089;48.752;11.338;2022-11-20T17:43:12;4.33;;;1.50;;
70535;SDS011;58089;48.752;11.338;2022-11-20T17:45:37;5.47;;;1.50;;
70535;SDS011;58089;48.752;11.338;2022-11-20T17:48:02;5.23;;;1.53;;
70535;SDS011;58089;48.752;11.338;2022-11-20T17:50:28;4.30;;;1.30;;
70535;SDS011;58089;48.752;11.338;2022-11-20T17:52:53;4.83;;;1.53;;
70535;SDS011;58089;48.752;11.338;2022-11-20T17:55:19;4.77;;;1.77;;
70535;SDS011;58089;48.752;11.338;2022-11-20T17:57:44;5.07;;;1.63;;
70535;SDS011;58089;48.752;11.338;2022-11-20T18:00:20;5.15;;;1.83;;
70535;SDS011;58089;48.752;11.338;2022-11-20T18:02:46;5.40;;;1.70;;
70535;SDS011;58089;48.752;11.338;2022-11-20T18:05:12;6.00;;;1.90;;
70535;SDS011;58089;48.752;11.338;2022-11-20T18:07:37;6.60;;;1.93;;
70535;SDS011;58089;48.752;11.338;2022-11-20T18:10:03;6.05;;;2.00;;
70535;SDS011;58089;48.752;11.338;2022-11-20T18:12:29;5.20;;;2.17;;
70535;SDS011;58089;48.752;11.338;2022-11-20T18:14:55;4.13;;;1.70;;
70535;SDS011;58089;48.752;11.338;2022-11-20T18:17:20;5.03;;;1.80;;
70535;SDS011;58089;48.752;11.338;2022-11-20T18:19:46;5.60;;;2.07;;
70535;SDS011;58089;48.752;11.338;2022-11-20T18:22:12;5.15;;;2.15;;
70535;SDS011;58089;48.752;11.338;2022-11-20T18:24:39;5.85;;;2.67;;
70535;SDS011;58089;48.752;11.338;2022-11-20T18:27:05;6.10;;;2.07;;
70535;SDS011;58089;48.752;11.338;2022-11-20T18:29:31;5.00;;;1.92;;
70535;SDS011;58089;48.752;11.338;2022-11-20T18:31:57;5.18;;;2.20;;
70535;SDS011;58089;48.752;11.338;2022-11-20T18:34:23;4.57;;;1.88;;
70535;SDS011;58089;48.752;11.338;2022-11-20T18:36:48;4.50;;;1.90;;
70535;SDS011;58089;48.752;11.338;2022-11-20T18:39:14;5.13;;;1.77;;
70535;SDS011;58089;48.752;11.338;2022-11-20T18:41:40;4.63;;;1.85;;
70535;SDS011;58089;48.752;11.338;2022-11-20T18:44:25;5.60;;;2.25;;
70535;SDS011;58089;48.752;11.338;2022-11-20T18:47:11;5.60;;;2.00;;
70535;SDS011;58089;48.752;11.338;2022-11-20T18:49:42;4.37;;;1.93;;
70535;SDS011;58089;48.752;11.338;2022-11-20T18:52:10;5.20;;;1.85;;
70535;SDS011;58089;48.752;11.338;2022-11-20T18:54:36;4.70;;;1.92;;
70535;SDS011;58089;48.752;11.338;2022-11-20T18:57:01;4.80;;;1.63;;
70535;SDS011;58089;48.752;11.338;2022-11-20T18:59:27;4.27;;;1.57;;
70535;SDS011;58089;48.752;11.338;2022-11-20T19:01:52;4.90;;;1.77;;
70535;SDS011;58089;48.752;11.338;2022-11-20T19:04:17;4.83;;;1.70;;
70535;SDS011;58089;48.752;11.338;2022-11-20T19:06:43;4.60;;;1.90;;
70535;SDS011;58089;48.752;11.338;2022-11-20T19:09:10;4.60;;;1.80;;
70535;SDS011;58089;48.752;11.338;2022-11-20T19:11:37;6.87;;;3.03;;
70535;SDS011;58089;48.752;11.338;2022-11-20T19:14:03;6.35;;;2.28;;
70535;SDS011;58089;48.752;11.338;2022-11-20T19:16:29;5.30;;;2.05;;
70535;SDS011;58089;48.752;11.338;2022-11-20T19:18:55;5.03;;;1.77;;
70535;SDS011;58089;48.752;11.338;2022-11-20T19:21:23;6.53;;;1.57;;
70535;SDS011;58089;48.752;11.338;2022-11-20T19:23:50;4.55;;;1.45;;
70535;SDS011;58089;48.752;11.338;2022-11-20T19:26:16;4.85;;;1.85;;
70535;SDS011;58089;48.752;11.338;2022-11-20T19:28:42;5.60;;;1.70;;
70535;SDS011;58089;48.752;11.338;2022-11-20T19:31:09;4.85;;;1.80;;
70535;SDS011;58089;48.752;11.338;2022-11-20T19:33:36;4.77;;;1.87;;
70535;SDS011;58089;48.752;11.338;2022-11-20T19:36:08;4.87;;;1.90;;
70535;SDS011;58089;48.752;11.338;2022-11-20T19:38:34;4.23;;;1.50;;
70535;SDS011;58089;48.752;11.338;2022-11-20T19:41:00;4.97;;;1.65;;
70535;SDS011;58089;48.752;11.338;2022-11-20T19:43:26;4.63;;;1.38;;
70535;SDS011;58089;48.752;11.338;2022-11-20T19:45:51;4.43;;;1.53;;
70535;SDS011;58089;48.752;11.338;2022-11-20T19:48:16;5.10;;;1.63;;
70535;SDS011;58089;48.752;11.338;2022-11-20T19:50:42;5.03;;;1.77;;
70535;SDS011;58089;48.752;11.338;2022-11-20T19:53:07;4.30;;;1.40;;
70535;SDS011;58089;48.752;11.338;2022-11-20T19:55:35;3.90;;;1.27;;
70535;SDS011;58089;48.752;11.338;2022-11-20T19:58:00;4.23;;;1.60;;
70535;SDS011;58089;48.752;11.338;2022-11-20T20:00:27;5.10;;;1.63;;
70535;SDS011;58089;48.752;11.338;2022-11-20T20:02:54;5.65;;;1.60;;
70535;SDS011;58089;48.752;11.338;2022-11-20T20:05:19;5.67;;;1.63;;
70535;SDS011;58089;48.752;11.338;2022-11-20T20:07:44;4.87;;;1.50;;
70535;SDS011;58089;48.752;11.338;2022-11-20T20:10:10;4.37;;;1.60;;
70535;SDS011;58089;48.752;11.338;2022-11-20T20:12:35;5.83;;;1.50;;
70535;SDS011;58089;48.752;11.338;2022-11-20T20:15:00;4.77;;;1.70;;
70535;SDS011;58089;48.752;11.338;2022-11-20T20:17:25;5.20;;;1.67;;
70535;SDS011;58089;48.752;11.338;2022-11-20T20:19:51;8.17;;;2.70;;
70535;SDS011;58089;48.752;11.338;2022-11-20T20:22:16;5.67;;;1.90;;
70535;SDS011;58089;48.752;11.338;2022-11-20T20:24:41;5.70;;;2.10;;
70535;SDS011;58089;48.752;11.338;2022-11-20T20:27:07;4.77;;;2.07;;
70535;SDS011;58089;48.752;11.338;2022-11-20T20:29:32;5.90;;;2.13;;
70535;SDS011;58089;48.752;11.338;2022-11-20T20:31:57;5.17;;;2.13;;
70535;SDS011;58089;48.752;11.338;2022-11-20T20:34:23;7.03;;;2.28;;
70535;SDS011;58089;48.752;11.338;2022-11-20T20:36:53;5.22;;;2.20;;
70535;SDS011;58089;48.752;11.338;2022-11-20T20:39:18;6.17;;;1.97;;
70535;SDS011;58089;48.752;11.338;2022-11-20T20:41:44;6.70;;;2.40;;
70535;SDS011;58089;48.752;11.338;2022-11-20T20:44:09;6.00;;;2.17;;
70535;SDS011;58089;48.752;11.338;2022-11-20T20:46:53;5.60;;;2.17;;
70535;SDS011;58089;48.752;11.338;2022-11-20T20:49:18;7.80;;;2.20;;
70535;SDS011;58089;48.752;11.338;2022-11-20T20:51:44;4.83;;;2.13;;
70535;SDS011;58089;48.752;11.338;2022-11-20T20:54:09;5.97;;;2.20;;
70535;SDS011;58089;48.752;11.338;2022-11-20T20:56:34;6.97;;;2.53;;
70535;SDS011;58089;48.752;11.338;2022-11-20T20:59:00;7.07;;;2.30;;
70535;SDS011;58089;48.752;11.338;2022-11-20T21:01:25;5.72;;;2.35;;
70535;SDS011;58089;48.752;11.338;2022-11-20T21:03:54;6.13;;;2.40;;
70535;SDS011;58089;48.752;11.338;2022-11-20T21:06:20;6.22;;;2.20;;
70535;SDS011;58089;48.752;11.338;2022-11-20T21:08:45;6.13;;;2.53;;
70535;SDS011;58089;48.752;11.338;2022-11-20T21:11:11;6.13;;;2.37;;
70535;SDS011;58089;48.752;11.338;2022-11-20T21:13:38;5.63;;;2.33;;
70535;SDS011;58089;48.752;11.338;2022-11-20T21:16:04;7.00;;;2.40;;
70535;SDS011;58089;48.752;11.338;2022-11-20T21:18:31;6.55;;;2.30;;
70535;SDS011;58089;48.752;11.338;2022-11-20T21:20:57;8.52;;;2.55;;
70535;SDS011;58089;48.752;11.338;2022-11-20T21:23:43;6.63;;;3.03;;
70535;SDS011;58089;48.752;11.338;2022-11-20T21:26:09;5.68;;;2.00;;
70535;SDS011;58089;48.752;11.338;2022-11-20T21:28:35;6.53;;;2.33;;
70535;SDS011;58089;48.752;11.338;2022-11-20T21:31:05;6.38;;;1.92;;
70535;SDS011;58089;48.752;11.338;2022-11-20T21:33:35;6.28;;;2.40;;
70535;SDS011;58089;48.752;11.338;2022-11-20T21:36:04;8.40;;;3.00;;
70535;SDS011;58089;48.752;11.338;2022-11-20T21:38:31;5.68;;;2.63;;
70535;SDS011;58089;48.752;11.338;2022-11-20T21:40:56;4.87;;;1.60;;
70535;SDS011;58089;48.752;11.338;2022-11-20T21:43:22;4.95;;;2.17;;
70535;SDS011;58089;48.752;11.338;2022-11-20T21:45:47;7.80;;;2.20;;
70535;SDS011;58089;48.752;11.338;2022-11-20T21:48:13;7.10;;;2.47;;
70535;SDS011;58089;48.752;11.338;2022-11-20T21:50:38;5.07;;;1.97;;
70535;SDS011;58089;48.752;11.338;2022-11-20T21:53:03;4.50;;;1.63;;
70535;SDS011;58089;48.752;11.338;2022-11-20T21:55:28;4.30;;;1.63;;
70535;SDS011;58089;48.752;11.338;2022-11-20T21:57:54;5.10;;;2.00;;
70535;SDS011;58089;48.752;11.338;2022-11-20T22:00:19;4.53;;;1.80;;
70535;SDS011;58089;48.752;11.338;2022-11-20T22:02:44;5.00;;;1.60;;
70535;SDS011;58089;48.752;11.338;2022-11-20T22:05:10;4.40;;;1.57;;
70535;SDS011;58089;48.752;11.338;2022-11-20T22:07:35;4.90;;;1.87;;
70535;SDS011;58089;48.752;11.338;2022-11-20T22:10:00;4.97;;;1.70;;
70535;SDS011;58089;48.752;11.338;2022-11-20T22:12:26;5.47;;;1.90;;
70535;SDS011;58089;48.752;11.338;2022-11-20T22:14:51;5.37;;;1.83;;
70535;SDS011;58089;48.752;11.338;2022-11-20T22:17:16;4.57;;;1.60;;
70535;SDS011;58089;48.752;11.338;2022-11-20T22:20:01;6.07;;;1.63;;
70535;SDS011;58089;48.752;11.338;2022-11-20T22:22:27;5.30;;;1.73;;
70535;SDS011;58089;48.752;11.338;2022-11-20T22:24:52;4.07;;;1.47;;
70535;SDS011;58089;48.752;11.338;2022-11-20T22:27:17;5.53;;;1.90;;
70535;SDS011;58089;48.752;11.338;2022-11-20T22:29:43;4.60;;;1.80;;
70535;SDS011;58089;48.752;11.338;2022-11-20T22:32:08;4.83;;;1.70;;
70535;SDS011;58089;48.752;11.338;2022-11-20T22:34:33;4.60;;;1.70;;
70535;SDS011;58089;48.752;11.338;2022-11-20T22:36:59;4.57;;;1.57;;
70535;SDS011;58089;48.752;11.338;2022-11-20T22:39:24;5.13;;;1.80;;
70535;SDS011;58089;48.752;11.338;2022-11-20T22:41:49;5.27;;;1.90;;
70535;SDS011;58089;48.752;11.338;2022-11-20T22:44:15;4.23;;;1.50;;
70535;SDS011;58089;48.752;11.338;2022-11-20T22:46:40;4.22;;;1.50;;
70535;SDS011;58089;48.752;11.338;2022-11-20T22:49:06;4.60;;;1.70;;
70535;SDS011;58089;48.752;11.338;2022-11-20T22:51:36;5.67;;;1.70;;
70535;SDS011;58089;48.752;11.338;2022-11-20T22:54:02;4.60;;;1.63;;
70535;SDS011;58089;48.752;11.338;2022-11-20T22:56:28;5.17;;;1.57;;
70535;SDS011;58089;48.752;11.338;2022-11-20T22:58:54;4.50;;;1.47;;
